الصفحة الرئيسية
METAR-TAF:

METAR-TAF

مطار :

مطار الملك عبد العزيز الدولي

جدة, السعودية

دائرة عرض: 21-42N, خط طول: 039-11E, ارتفاع: 15 متر

مراقبة الطقس الحالي

تاريخ ووقت الإصدار 23 دقيقة قبل الساعة 22:00UTC
رياح هادئة
درجة الحرارة 31°درجة مئوية
الرطوبة 75%
ضغط 1008 hPa
الرؤية 10 كم أو أكثر
غيوم قليلة على ارتفاع 4000 قدم

METAR: OEJN 222200Z 00000KT 9999 FEW040 31/26 Q1008 NOSIG

زمن: 01:23 (22:23 UTC)

توقعات

تاريخ ووقت الإصدار 5ساعات و 23 دقيقة قبل الساعة 17:00UTC
التوقعات صالحة من22 الساعة 18 UTC إلى 23 الساعة 24 UTC
ريح 8 عقدة من الشمال/الشمال الغربي
الرؤية: 8000 متر
غيوم قليلة على ارتفاع 4000 قدم
مؤقت
من 22 الساعة 18 UTC إلى 23 الساعة 06 UTC
الرؤية: 5000 متر
العجاج, غشاء
نظرية الاحتمالات 30% :
مؤقت
من 22 الساعة 18 UTC إلى 22 الساعة 22 UTC
غيوم قليلة على ارتفاع 3500 قدم, مزنة ركامية.
أصبح
من 23 الساعة 00 UTC إلى 23 الساعة 02 UTC
ريح 3 عقدةمن اتجاهات متغيرة

TAF: OEJN 221700Z 2218/2324 34008KT 8000 FEW040 TEMPO 2218/2306 5000 HZ BR PROB30 TEMPO 2218/2222 FEW035CB BECMG 2300/2302 VRB03KT

أرصاد الطقس والتوقعات من أكثر من 4000 مطار (تقارير الطقس للمطار METAR والتنبؤ بالطقس بالمطارTAF).

المحطات المتاحة هي النقط الصفراء والحمراء على الخريطة.

حرك المؤشر فوق النقطة لمعرفة اسم المحطة.

ثم انقر لمعرفة أرصاد وتوقعات الطقس.

لتغيير الخارطة: اضغط على الأزرار الخضراء مع رمز الصليب الأسود للتكبير. على الزر الأخضر مع شرطة للتصغير، أو على الأسهم الخضراء للخرائط المجاورة.


METAR-TAF: